Temp: 9.4°C   Baro: 1006.0mb
  Wind: 10.1mph   Dir: S (186°)
  Rain: 0.2mm (0.0mm/hr)
  Sun: 0W/m2  Humidity: 92%

Historic data

Bath Spa Weather Station Historical Data
Daily Summary for October 21, 2022 Units:  Both    English   Metric
Daily Weekly Monthly Yearly Custom
  High: Low: Average:
Temperature: 59.9 °F /  15.5 °C 53.1 °F /  11.7 °C 57.7 °F /  14.3 °C
Dew Point: 57.4 °F /  14.1 °C 50.5 °F /  10.3 °C 55.1 °F /  12.8 °C
Humidity: 93% 87% 91%
Wind Speed: 12.3mph /  19.8km/h - 5.3mph /  8.5km/h
Wind Gust: 24mph /  38.6km/h - -
Wind- - SSE
Pressure: 29.62 in /  1002.9 hPa 29.44 in /  996.8 hPa -
Precipitation: 0.69 in /  17.53 mm    
Historical Graphs
 
 
Tabular Data for October 21, 2022
Time Temperature Dew Point Pressure Wind Wind Speed Wind Gust Humidity Rainfall Rate (Hourly) solar
00:09 53.2 °F /  11.8 °C 50.6 °F /  10.3 °C 29.62in /  1002.9hPa ESE 3.9mph /  6.3km/h 8mph /  12.9km/h 91% 0.00in /  0mm 0 W/m2
00:14 53.2 °F /  11.8 °C 50.7 °F /  10.4 °C 29.62in /  1002.9hPa ESE 2.1mph /  3.4km/h 8mph /  12.9km/h 91% 0.00in /  0mm 0 W/m2
00:19 53.2 °F /  11.8 °C 50.7 °F /  10.4 °C 29.62in /  1002.9hPa ESE 2mph /  3.2km/h 5mph /  8km/h 91% 0.00in /  0mm 0 W/m2
00:24 53.1 °F /  11.7 °C 50.5 °F /  10.3 °C 29.61in /  1002.6hPa SE 1.7mph /  2.7km/h 7mph /  11.3km/h 91% 0.00in /  0mm 0 W/m2
00:29 53.2 °F /  11.8 °C 50.7 °F /  10.4 °C 29.61in /  1002.6hPa ESE 2.5mph /  4km/h 5mph /  8km/h 91% 0.00in /  0mm 0 W/m2
00:34 53.3 °F /  11.8 °C 50.8 °F /  10.4 °C 29.60in /  1002.3hPa ESE 2.8mph /  4.5km/h 7mph /  11.3km/h 91% 0.00in /  0mm 0 W/m2
00:39 53.4 °F /  11.9 °C 50.9 °F /  10.5 °C 29.60in /  1002.3hPa East 4.7mph /  7.6km/h 9mph /  14.5km/h 91% 0.00in /  0mm 0 W/m2
00:44 53.4 °F /  11.9 °C 50.9 °F /  10.5 °C 29.60in /  1002.3hPa ESE 3.6mph /  5.8km/h 8mph /  12.9km/h 91% 0.00in /  0mm 0 W/m2
00:49 53.4 °F /  11.9 °C 50.9 °F /  10.5 °C 29.61in /  1002.6hPa ESE 2.2mph /  3.5km/h 6mph /  9.7km/h 91% 0.00in /  0mm 0 W/m2
00:54 53.4 °F /  11.9 °C 50.9 °F /  10.5 °C 29.60in /  1002.3hPa ESE 1.7mph /  2.7km/h 7mph /  11.3km/h 91% 0.00in /  0mm 0 W/m2
00:59 53.2 °F /  11.8 °C 50.7 °F /  10.4 °C 29.60in /  1002.3hPa ESE 2.4mph /  3.9km/h 6mph /  9.7km/h 91% 0.00in /  0mm 0 W/m2
01:04 53.2 °F /  11.8 °C 50.7 °F /  10.4 °C 29.60in /  1002.3hPa ESE 3.3mph /  5.3km/h 5mph /  8km/h 91% 0.00in /  0mm 0 W/m2
01:09 53.2 °F /  11.8 °C 50.7 °F /  10.4 °C 29.60in /  1002.3hPa ESE 3mph /  4.8km/h 7mph /  11.3km/h 91% 0.00in /  0mm 0 W/m2
01:14 53.3 °F /  11.8 °C 50.8 °F /  10.4 °C 29.60in /  1002.3hPa East 4.6mph /  7.4km/h 8mph /  12.9km/h 91% 0.00in /  0mm 0 W/m2
01:19 53.4 °F /  11.9 °C 50.9 °F /  10.5 °C 29.60in /  1002.3hPa East 3.3mph /  5.3km/h 7mph /  11.3km/h 91% 0.00in /  0mm 0 W/m2
01:24 53.4 °F /  11.9 °C 50.9 °F /  10.5 °C 29.60in /  1002.3hPa East 2.5mph /  4km/h 6mph /  9.7km/h 91% 0.00in /  0mm 0 W/m2
01:29 53.3 °F /  11.8 °C 50.8 °F /  10.4 °C 29.60in /  1002.3hPa East 2.5mph /  4km/h 4mph /  6.4km/h 91% 0.00in /  0mm 0 W/m2
01:34 53.4 °F /  11.9 °C 50.9 °F /  10.5 °C 29.60in /  1002.3hPa ESE 1.6mph /  2.6km/h 6mph /  9.7km/h 91% 0.00in /  0mm 0 W/m2
01:39 53.4 °F /  11.9 °C 50.9 °F /  10.5 °C 29.59in /  1001.9hPa ESE 2.3mph /  3.7km/h 5mph /  8km/h 91% 0.00in /  0mm 0 W/m2
01:44 53.4 °F /  11.9 °C 50.9 °F /  10.5 °C 29.59in /  1001.9hPa ESE 2.8mph /  4.5km/h 8mph /  12.9km/h 91% 0.00in /  0mm 0 W/m2
01:49 53.4 °F /  11.9 °C 50.9 °F /  10.5 °C 29.59in /  1001.9hPa ESE 2.2mph /  3.5km/h 6mph /  9.7km/h 91% 0.00in /  0mm 0 W/m2
01:54 53.4 °F /  11.9 °C 50.9 °F /  10.5 °C 29.60in /  1002.3hPa SE 2.7mph /  4.3km/h 6mph /  9.7km/h 91% 0.00in /  0mm 0 W/m2
01:59 53.6 °F /  12 °C 51.1 °F /  10.6 °C 29.59in /  1001.9hPa ESE 3.8mph /  6.1km/h 7mph /  11.3km/h 91% 0.00in /  0mm 0 W/m2
02:04 53.8 °F /  12.1 °C 51.3 °F /  10.7 °C 29.59in /  1001.9hPa SE 2.8mph /  4.5km/h 7mph /  11.3km/h 91% 0.00in /  0mm 0 W/m2
02:09 54 °F /  12.2 °C 51.6 °F /  10.9 °C 29.59in /  1001.9hPa SE 2.8mph /  4.5km/h 6mph /  9.7km/h 91.6% 0.00in /  0mm 0 W/m2
02:14 54.1 °F /  12.3 °C 51.8 °F /  11 °C 29.59in /  1001.9hPa SE 4.3mph /  6.9km/h 7mph /  11.3km/h 92% 0.00in /  0mm 0 W/m2
02:19 54.1 °F /  12.3 °C 51.8 °F /  11 °C 29.59in /  1001.9hPa ESE 3.1mph /  5km/h 6mph /  9.7km/h 92% 0.00in /  0mm 0 W/m2
02:24 54.1 °F /  12.3 °C 51.8 °F /  11 °C 29.58in /  1001.6hPa ESE 4.5mph /  7.2km/h 9mph /  14.5km/h 92% 0.00in /  0mm 0 W/m2
02:29 54.3 °F /  12.4 °C 52 °F /  11.1 °C 29.58in /  1001.6hPa ESE 5.6mph /  9km/h 10mph /  16.1km/h 92% 0.00in /  0mm 0 W/m2
02:34 54.5 °F /  12.5 °C 52.2 °F /  11.2 °C 29.57in /  1001.2hPa SE 4.2mph /  6.8km/h 9mph /  14.5km/h 92% 0.00in /  0mm 0 W/m2
02:39 54.7 °F /  12.6 °C 52.3 °F /  11.3 °C 29.57in /  1001.2hPa SE 4mph /  6.4km/h 11mph /  17.7km/h 92% 0.00in /  0mm 0 W/m2
02:44 54.9 °F /  12.7 °C 52.5 °F /  11.4 °C 29.57in /  1001.2hPa SE 4.9mph /  7.9km/h 11mph /  17.7km/h 92% 0.00in /  0mm 0 W/m2
02:49 55 °F /  12.8 °C 52.7 °F /  11.5 °C 29.57in /  1001.2hPa SE 4.2mph /  6.8km/h 10mph /  16.1km/h 92% 0.00in /  0mm 0 W/m2
02:54 55 °F /  12.8 °C 52.7 °F /  11.5 °C 29.57in /  1001.2hPa SE 4.1mph /  6.6km/h 9mph /  14.5km/h 92% 0.00in /  0mm 0 W/m2
02:59 55 °F /  12.8 °C 52.7 °F /  11.5 °C 29.57in /  1001.2hPa ESE 3.7mph /  6km/h 9mph /  14.5km/h 92% 0.00in /  0mm 0 W/m2
03:04 55 °F /  12.8 °C 52.7 °F /  11.5 °C 29.57in /  1001.2hPa ESE 6.1mph /  9.8km/h 11mph /  17.7km/h 92% 0.00in /  0mm 0 W/m2
03:09 55.2 °F /  12.9 °C 52.9 °F /  11.6 °C 29.56in /  1000.9hPa SE 5.4mph /  8.7km/h 14mph /  22.5km/h 92% 0.00in /  0mm 0 W/m2
03:14 55.4 °F /  13 °C 53.1 °F /  11.7 °C 29.56in /  1000.9hPa ESE 9.7mph /  15.6km/h 13mph /  20.9km/h 92% 0.01in /  0.25mm 0 W/m2
03:19 55.6 °F /  13.1 °C 53.2 °F /  11.8 °C 29.56in /  1000.9hPa East 6mph /  9.7km/h 13mph /  20.9km/h 92% 0.01in /  0.25mm 0 W/m2
03:24 55.6 °F /  13.1 °C 53.2 °F /  11.8 °C 29.55in /  1000.6hPa ESE 7.3mph /  11.7km/h 15mph /  24.1km/h 92% 0.01in /  0.25mm 0 W/m2
03:29 55.7 °F /  13.2 °C 53.3 °F /  11.8 °C 29.55in /  1000.6hPa SE 4.9mph /  7.9km/h 15mph /  24.1km/h 92% 0.01in /  0.25mm 0 W/m2
03:34 55.8 °F /  13.2 °C 53.5 °F /  11.9 °C 29.54in /  1000.2hPa ESE 6.8mph /  10.9km/h 15mph /  24.1km/h 92.2% 0.01in /  0.25mm 0 W/m2
03:39 55.9 °F /  13.3 °C 54 °F /  12.2 °C 29.54in /  1000.2hPa ESE 6.2mph /  10km/h 14mph /  22.5km/h 93% 0.01in /  0.25mm 0 W/m2
03:44 56 °F /  13.3 °C 54 °F /  12.2 °C 29.54in /  1000.2hPa ESE 5mph /  8km/h 13mph /  20.9km/h 93% 0.01in /  0.25mm 0 W/m2
03:49 56.1 °F /  13.4 °C 54.1 °F /  12.3 °C 29.54in /  1000.2hPa SE 4.9mph /  7.9km/h 12mph /  19.3km/h 93% 0.01in /  0.25mm 0 W/m2
03:54 56.1 °F /  13.4 °C 54.1 °F /  12.3 °C 29.53in /  999.9hPa ESE 4.1mph /  6.6km/h 12mph /  19.3km/h 93% 0.01in /  0.25mm 0 W/m2
03:59 56.3 °F /  13.5 °C 54.3 °F /  12.4 °C 29.53in /  999.9hPa East 6.6mph /  10.6km/h 10mph /  16.1km/h 93% 0.01in /  0.25mm 0 W/m2
04:04 56.3 °F /  13.5 °C 54.3 °F /  12.4 °C 29.53in /  999.9hPa ESE 4.8mph /  7.7km/h 12mph /  19.3km/h 93% 0.01in /  0.25mm 0 W/m2
04:09 56.5 °F /  13.6 °C 54.5 °F /  12.5 °C 29.52in /  999.5hPa ESE 5.2mph /  8.4km/h 9mph /  14.5km/h 93% 0.01in /  0.25mm 0 W/m2
04:14 56.5 °F /  13.6 °C 54.5 °F /  12.5 °C 29.52in /  999.5hPa ESE 5.2mph /  8.4km/h 11mph /  17.7km/h 93% 0.00in /  0mm 0 W/m2
04:19 56.5 °F /  13.6 °C 54.5 °F /  12.5 °C 29.52in /  999.5hPa ESE 5.4mph /  8.7km/h 11mph /  17.7km/h 93% 0.00in /  0mm 0 W/m2
04:24 56.5 °F /  13.6 °C 54.5 °F /  12.5 °C 29.52in /  999.5hPa ESE 3.7mph /  6km/h 10mph /  16.1km/h 93% 0.00in /  0mm 0 W/m2
04:29 56.5 °F /  13.6 °C 54.5 °F /  12.5 °C 29.52in /  999.5hPa ESE 5.8mph /  9.3km/h 10mph /  16.1km/h 93% 0.00in /  0mm 0 W/m2
04:34 56.5 °F /  13.6 °C 54.5 °F /  12.5 °C 29.52in /  999.5hPa SE 6mph /  9.7km/h 10mph /  16.1km/h 93% 0.00in /  0mm 0 W/m2
04:39 56.5 °F /  13.6 °C 54.5 °F /  12.5 °C 29.52in /  999.5hPa SE 4.4mph /  7.1km/h 10mph /  16.1km/h 93% 0.00in /  0mm 0 W/m2
04:44 56.5 °F /  13.6 °C 54.5 °F /  12.5 °C 29.52in /  999.5hPa ESE 5.1mph /  8.2km/h 9mph /  14.5km/h 93% 0.00in /  0mm 0 W/m2
04:49 56.7 °F /  13.7 °C 54.7 °F /  12.6 °C 29.52in /  999.5hPa ESE 4.9mph /  7.9km/h 10mph /  16.1km/h 93% 0.00in /  0mm 0 W/m2
04:54 56.7 °F /  13.7 °C 54.7 °F /  12.6 °C 29.52in /  999.5hPa ESE 5.8mph /  9.3km/h 9mph /  14.5km/h 93% 0.00in /  0mm 0 W/m2
04:59 56.7 °F /  13.7 °C 54.7 °F /  12.6 °C 29.51in /  999.2hPa ESE 5.4mph /  8.7km/h 10mph /  16.1km/h 93% 0.00in /  0mm 0 W/m2
05:04 56.7 °F /  13.7 °C 54.8 °F /  12.7 °C 29.51in /  999.2hPa ESE 6mph /  9.7km/h 11mph /  17.7km/h 93% 0.00in /  0mm 0 W/m2
05:09 56.8 °F /  13.8 °C 54.9 °F /  12.7 °C 29.51in /  999.2hPa ESE 5.5mph /  8.9km/h 10mph /  16.1km/h 93% 0.00in /  0mm 0 W/m2
05:14 57 °F /  13.9 °C 55 °F /  12.8 °C 29.51in /  999.2hPa SE 4.1mph /  6.6km/h 10mph /  16.1km/h 93% 0.00in /  0mm 0 W/m2
05:19 57.1 °F /  13.9 °C 55.1 °F /  12.8 °C 29.51in /  999.2hPa ESE 7.4mph /  11.9km/h 11mph /  17.7km/h 93% 0.00in /  0mm 0 W/m2
05:24 57.3 °F /  14.1 °C 55.3 °F /  12.9 °C 29.51in /  999.2hPa ESE 5.4mph /  8.7km/h 10mph /  16.1km/h 93% 0.00in /  0mm 0 W/m2
05:29 57.4 °F /  14.1 °C 55.4 °F /  13 °C 29.51in /  999.2hPa SSE 5.2mph /  8.4km/h 11mph /  17.7km/h 93% 0.00in /  0mm 0 W/m2
05:34 57.4 °F /  14.1 °C 55.4 °F /  13 °C 29.50in /  998.9hPa SE 4.5mph /  7.2km/h 11mph /  17.7km/h 93% 0.00in /  0mm 0 W/m2
05:39 57.4 °F /  14.1 °C 55.4 °F /  13 °C 29.50in /  998.9hPa ESE 4.3mph /  6.9km/h 11mph /  17.7km/h 93% 0.00in /  0mm 0 W/m2
05:44 57.4 °F /  14.1 °C 55.4 °F /  13 °C 29.50in /  998.9hPa ESE 5.6mph /  9km/h 9mph /  14.5km/h 93% 0.00in /  0mm 0 W/m2
05:49 57.6 °F /  14.2 °C 55.6 °F /  13.1 °C 29.50in /  998.9hPa ESE 6mph /  9.7km/h 11mph /  17.7km/h 93% 0.00in /  0mm 0 W/m2
05:54 57.5 °F /  14.2 °C 55.5 °F /  13.1 °C 29.49in /  998.5hPa ESE 7mph /  11.3km/h 11mph /  17.7km/h 93% 0.00in /  0mm 0 W/m2
05:59 57.6 °F /  14.2 °C 55.6 °F /  13.1 °C 29.49in /  998.5hPa ESE 4.8mph /  7.7km/h 13mph /  20.9km/h 93% 0.00in /  0mm 0 W/m2
06:04 57.6 °F /  14.2 °C 55.6 °F /  13.1 °C 29.49in /  998.5hPa SE 3.9mph /  6.3km/h 9mph /  14.5km/h 93% 0.00in /  0mm 0 W/m2
06:09 57.6 °F /  14.2 °C 55.6 °F /  13.1 °C 29.49in /  998.5hPa SE 4.6mph /  7.4km/h 10mph /  16.1km/h 93% 0.00in /  0mm 0 W/m2
06:14 57.6 °F /  14.2 °C 55.6 °F /  13.1 °C 29.49in /  998.5hPa SE 3.5mph /  5.6km/h 11mph /  17.7km/h 93% 0.00in /  0mm 0 W/m2
06:19 57.6 °F /  14.2 °C 55.6 °F /  13.1 °C 29.49in /  998.5hPa ESE 5.8mph /  9.3km/h 9mph /  14.5km/h 93% 0.00in /  0mm 0 W/m2
06:24 57.7 °F /  14.3 °C 55.8 °F /  13.2 °C 29.49in /  998.5hPa SE 5.4mph /  8.7km/h 9mph /  14.5km/h 93% 0.00in /  0mm 0 W/m2
06:29 57.7 °F /  14.3 °C 55.8 °F /  13.2 °C 29.49in /  998.5hPa ESE 5.3mph /  8.5km/h 10mph /  16.1km/h 93% 0.00in /  0mm 0 W/m2
06:34 57.7 °F /  14.3 °C 55.7 °F /  13.2 °C 29.48in /  998.2hPa SSE 5.3mph /  8.5km/h 9mph /  14.5km/h 93% 0.00in /  0mm 0 W/m2
06:39 57.7 °F /  14.3 °C 55.8 °F /  13.2 °C 29.48in /  998.2hPa SE 5.6mph /  9km/h 15mph /  24.1km/h 93% 0.00in /  0mm 0 W/m2
06:44 57.7 °F /  14.3 °C 55.8 °F /  13.2 °C 29.48in /  998.2hPa SE 4.6mph /  7.4km/h 10mph /  16.1km/h 93% 0.00in /  0mm 0 W/m2
06:49 57.7 °F /  14.3 °C 55.8 °F /  13.2 °C 29.48in /  998.2hPa ESE 4.7mph /  7.6km/h 9mph /  14.5km/h 93% 0.00in /  0mm 0 W/m2
06:54 57.9 °F /  14.4 °C 55.8 °F /  13.2 °C 29.48in /  998.2hPa SE 4.8mph /  7.7km/h 13mph /  20.9km/h 92.6% 0.00in /  0mm 0 W/m2
06:59 57.9 °F /  14.4 °C 55.6 °F /  13.1 °C 29.48in /  998.2hPa SE 4.6mph /  7.4km/h 11mph /  17.7km/h 92% 0.00in /  0mm 0 W/m2
07:04 57.9 °F /  14.4 °C 55.6 °F /  13.1 °C 29.48in /  998.2hPa SE 4.5mph /  7.2km/h 10mph /  16.1km/h 92% 0.00in /  0mm 0 W/m2
07:09 57.7 °F /  14.3 °C 55.4 °F /  13 °C 29.48in /  998.2hPa SE 4.1mph /  6.6km/h 10mph /  16.1km/h 92% 0.00in /  0mm 0 W/m2
07:14 57.7 °F /  14.3 °C 55.4 °F /  13 °C 29.48in /  998.2hPa ESE 5.3mph /  8.5km/h 12mph /  19.3km/h 92% 0.00in /  0mm 0 W/m2
07:19 57.7 °F /  14.3 °C 55.4 °F /  13 °C 29.48in /  998.2hPa SE 4.5mph /  7.2km/h 9mph /  14.5km/h 92% 0.00in /  0mm 0 W/m2
07:24 57.7 °F /  14.3 °C 55.4 °F /  13 °C 29.48in /  998.2hPa SE 4.6mph /  7.4km/h 9mph /  14.5km/h 92% 0.00in /  0mm 0 W/m2
07:29 57.9 °F /  14.4 °C 55.6 °F /  13.1 °C 29.48in /  998.2hPa ESE 3.2mph /  5.1km/h 7mph /  11.3km/h 92% 0.00in /  0mm 0 W/m2
07:34 57.9 °F /  14.4 °C 55.6 °F /  13.1 °C 29.48in /  998.2hPa ESE 3.9mph /  6.3km/h 9mph /  14.5km/h 92% 0.00in /  0mm 0 W/m2
07:39 57.8 °F /  14.3 °C 55.5 °F /  13.1 °C 29.48in /  998.2hPa ESE 5.6mph /  9km/h 9mph /  14.5km/h 92% 0.00in /  0mm 0 W/m2
07:44 57.9 °F /  14.4 °C 55.6 °F /  13.1 °C 29.48in /  998.2hPa ESE 4.8mph /  7.7km/h 10mph /  16.1km/h 92% 0.00in /  0mm 0 W/m2
07:49 58 °F /  14.4 °C 55.6 °F /  13.1 °C 29.48in /  998.2hPa SE 4.1mph /  6.6km/h 9mph /  14.5km/h 91.8% 0.00in /  0mm 0 W/m2
07:54 58.2 °F /  14.6 °C 55.5 °F /  13.1 °C 29.48in /  998.2hPa ESE 5.2mph /  8.4km/h 11mph /  17.7km/h 91% 0.00in /  0mm 5 W/m2
07:59 58.5 °F /  14.7 °C 55.8 °F /  13.2 °C 29.48in /  998.2hPa SE 3.7mph /  6km/h 11mph /  17.7km/h 91% 0.00in /  0mm 5 W/m2
08:04 58.5 °F /  14.7 °C 55.8 °F /  13.2 °C 29.48in /  998.2hPa SSE 3.9mph /  6.3km/h 9mph /  14.5km/h 91% 0.00in /  0mm 11 W/m2
08:09 58.6 °F /  14.8 °C 55.8 °F /  13.2 °C 29.48in /  998.2hPa SSE 5.4mph /  8.7km/h 9mph /  14.5km/h 90.4% 0.00in /  0mm 19 W/m2
08:14 58.8 °F /  14.9 °C 55.9 °F /  13.3 °C 29.48in /  998.2hPa ESE 5.6mph /  9km/h 13mph /  20.9km/h 90% 0.00in /  0mm 25 W/m2
08:19 58.8 °F /  14.9 °C 55.9 °F /  13.3 °C 29.48in /  998.2hPa SE 5.3mph /  8.5km/h 9mph /  14.5km/h 90% 0.00in /  0mm 30 W/m2
08:24 59 °F /  15 °C 56.1 °F /  13.4 °C 29.48in /  998.2hPa ESE 4.9mph /  7.9km/h 8mph /  12.9km/h 90% 0.00in /  0mm 33 W/m2
08:29 59 °F /  15 °C 56 °F /  13.3 °C 29.48in /  998.2hPa SE 5.2mph /  8.4km/h 9mph /  14.5km/h 89.8% 0.00in /  0mm 32 W/m2
08:34 59 °F /  15 °C 55.8 °F /  13.2 °C 29.49in /  998.5hPa SE 4.6mph /  7.4km/h 10mph /  16.1km/h 89% 0.01in /  0.25mm 16 W/m2
08:39 58.7 °F /  14.8 °C 55.6 °F /  13.1 °C 29.49in /  998.5hPa SE 4.1mph /  6.6km/h 10mph /  16.1km/h 89.2% 0.02in /  0.51mm 16 W/m2
08:44 58.5 °F /  14.7 °C 55.6 °F /  13.1 °C 29.49in /  998.5hPa SE 4.8mph /  7.7km/h 10mph /  16.1km/h 90% 0.08in /  2.03mm 14 W/m2
08:49 58.3 °F /  14.6 °C 55.4 °F /  13 °C 29.49in /  998.5hPa SE 3.5mph /  5.6km/h 9mph /  14.5km/h 90% 0.17in /  4.32mm 12 W/m2
08:54 58 °F /  14.4 °C 55.3 °F /  12.9 °C 29.49in /  998.5hPa SE 4mph /  6.4km/h 9mph /  14.5km/h 91% 0.20in /  5.08mm 11 W/m2
08:59 57.9 °F /  14.4 °C 55.2 °F /  12.9 °C 29.49in /  998.5hPa South 4.6mph /  7.4km/h 13mph /  20.9km/h 91% 0.20in /  5.08mm 33 W/m2
09:04 57.9 °F /  14.4 °C 55.6 °F /  13.1 °C 29.49in /  998.5hPa SE 4.5mph /  7.2km/h 11mph /  17.7km/h 92% 0.21in /  5.33mm 26 W/m2
09:09 58.1 °F /  14.5 °C 55.8 °F /  13.2 °C 29.50in /  998.9hPa SSE 8.4mph /  13.5km/h 17mph /  27.4km/h 92% 0.25in /  6.35mm 19 W/m2
09:14 57.7 °F /  14.3 °C 55.3 °F /  12.9 °C 29.50in /  998.9hPa South 9.4mph /  15.1km/h 18mph /  29km/h 92% 0.33in /  8.38mm 16 W/m2
09:19 57.4 °F /  14.1 °C 55 °F /  12.8 °C 29.49in /  998.5hPa SW 7.1mph /  11.4km/h 17mph /  27.4km/h 92% 0.34in /  8.64mm 46 W/m2
09:24 57.7 °F /  14.3 °C 55.3 °F /  12.9 °C 29.49in /  998.5hPa South 3.4mph /  5.5km/h 10mph /  16.1km/h 92% 0.34in /  8.64mm 153 W/m2
09:29 57.8 °F /  14.3 °C 55.5 °F /  13.1 °C 29.49in /  998.5hPa SSE 3.3mph /  5.3km/h 7mph /  11.3km/h 92% 0.34in /  8.64mm 167 W/m2
09:34 58.4 °F /  14.7 °C 56.1 °F /  13.4 °C 29.49in /  998.5hPa SSE 6.2mph /  10km/h 14mph /  22.5km/h 92% 0.34in /  8.64mm 251 W/m2
09:39 58.9 °F /  14.9 °C 56.6 °F /  13.7 °C 29.49in /  998.5hPa SSE 5.2mph /  8.4km/h 16mph /  25.7km/h 92% 0.33in /  8.38mm 278 W/m2
09:44 59.3 °F /  15.2 °C 56.9 °F /  13.8 °C 29.48in /  998.2hPa SSE 6mph /  9.7km/h 14mph /  22.5km/h 92% 0.31in /  7.87mm 243 W/m2
09:49 59.4 °F /  15.2 °C 57 °F /  13.9 °C 29.49in /  998.5hPa SSE 6.7mph /  10.8km/h 17mph /  27.4km/h 92% 0.24in /  6.1mm 107 W/m2
09:54 59.4 °F /  15.2 °C 57 °F /  13.9 °C 29.49in /  998.5hPa South 6.3mph /  10.1km/h 13mph /  20.9km/h 92% 0.16in /  4.06mm 116 W/m2
09:59 59.4 °F /  15.2 °C 56.7 °F /  13.7 °C 29.49in /  998.5hPa SSE 4.4mph /  7.1km/h 14mph /  22.5km/h 91% 0.13in /  3.3mm 72 W/m2
10:04 59.4 °F /  15.2 °C 56.7 °F /  13.7 °C 29.49in /  998.5hPa SSE 5.7mph /  9.2km/h 10mph /  16.1km/h 91% 0.13in /  3.3mm 63 W/m2
10:09 59.2 °F /  15.1 °C 56.5 °F /  13.6 °C 29.49in /  998.5hPa SSE 5.7mph /  9.2km/h 10mph /  16.1km/h 91% 0.13in /  3.3mm 76 W/m2
10:14 58.9 °F /  14.9 °C 56.2 °F /  13.4 °C 29.49in /  998.5hPa ESE 4.3mph /  6.9km/h 9mph /  14.5km/h 91% 0.08in /  2.03mm 79 W/m2
10:19 58.8 °F /  14.9 °C 56.1 °F /  13.4 °C 29.48in /  998.2hPa SSE 6.2mph /  10km/h 11mph /  17.7km/h 91% 0.01in /  0.25mm 69 W/m2
10:24 58.8 °F /  14.9 °C 56.1 °F /  13.4 °C 29.48in /  998.2hPa SE 5.8mph /  9.3km/h 12mph /  19.3km/h 91% 0.01in /  0.25mm 51 W/m2
10:29 58.8 °F /  14.9 °C 56.1 °F /  13.4 °C 29.49in /  998.5hPa SSE 4.8mph /  7.7km/h 8mph /  12.9km/h 91% 0.02in /  0.51mm 32 W/m2
10:34 58.6 °F /  14.8 °C 55.9 °F /  13.3 °C 29.49in /  998.5hPa SE 5.4mph /  8.7km/h 12mph /  19.3km/h 91% 0.03in /  0.76mm 70 W/m2
10:39 58.6 °F /  14.8 °C 56.1 °F /  13.4 °C 29.48in /  998.2hPa SSE 3.2mph /  5.1km/h 9mph /  14.5km/h 91.4% 0.03in /  0.76mm 109 W/m2
10:44 58.6 °F /  14.8 °C 56.3 °F /  13.5 °C 29.48in /  998.2hPa SSE 5mph /  8km/h 12mph /  19.3km/h 92% 0.03in /  0.76mm 149 W/m2
10:49 58.8 °F /  14.9 °C 56.5 °F /  13.6 °C 29.49in /  998.5hPa SSE 3.6mph /  5.8km/h 12mph /  19.3km/h 92% 0.03in /  0.76mm 200 W/m2
10:54 59 °F /  15 °C 56.7 °F /  13.7 °C 29.48in /  998.2hPa SSE 3.7mph /  6km/h 9mph /  14.5km/h 92% 0.03in /  0.76mm 137 W/m2
10:59 59.3 °F /  15.2 °C 56.9 °F /  13.8 °C 29.48in /  998.2hPa SSE 6.4mph /  10.3km/h 11mph /  17.7km/h 92% 0.05in /  1.27mm 195 W/m2
11:04 59.4 °F /  15.2 °C 57 °F /  13.9 °C 29.48in /  998.2hPa South 3.6mph /  5.8km/h 10mph /  16.1km/h 92% 0.05in /  1.27mm 209 W/m2
11:09 59.5 °F /  15.3 °C 57.2 °F /  14 °C 29.48in /  998.2hPa SSE 5.9mph /  9.5km/h 11mph /  17.7km/h 92% 0.05in /  1.27mm 149 W/m2
11:14 59.7 °F /  15.4 °C 57.3 °F /  14.1 °C 29.48in /  998.2hPa SE 5mph /  8km/h 10mph /  16.1km/h 92% 0.04in /  1.02mm 72 W/m2
11:19 59.7 °F /  15.4 °C 57.4 °F /  14.1 °C 29.48in /  998.2hPa South 7mph /  11.3km/h 17mph /  27.4km/h 92% 0.04in /  1.02mm 88 W/m2
11:24 59.7 °F /  15.4 °C 57.3 °F /  14.1 °C 29.48in /  998.2hPa SSE 10.3mph /  16.6km/h 24mph /  38.6km/h 91.8% 0.04in /  1.02mm 139 W/m2
11:29 59.7 °F /  15.4 °C 57 °F /  13.9 °C 29.48in /  998.2hPa South 5.6mph /  9km/h 24mph /  38.6km/h 91% 0.04in /  1.02mm 297 W/m2
11:34 59.7 °F /  15.4 °C 57 °F /  13.9 °C 29.49in /  998.5hPa South 7.4mph /  11.9km/h 15mph /  24.1km/h 91% 0.04in /  1.02mm 255 W/m2
11:39 59.7 °F /  15.4 °C 57 °F /  13.9 °C 29.49in /  998.5hPa SSE 7.4mph /  11.9km/h 13mph /  20.9km/h 91% 0.02in /  0.51mm 134 W/m2
11:44 59.7 °F /  15.4 °C 56.9 °F /  13.8 °C 29.49in /  998.5hPa South 4.8mph /  7.7km/h 12mph /  19.3km/h 90.4% 0.02in /  0.51mm 69 W/m2
11:49 59.5 °F /  15.3 °C 56.7 °F /  13.7 °C 29.49in /  998.5hPa South 8.4mph /  13.5km/h 19mph /  30.6km/h 90% 0.02in /  0.51mm 58 W/m2
11:54 59.5 °F /  15.3 °C 56.7 °F /  13.7 °C 29.49in /  998.5hPa South 5.7mph /  9.2km/h 13mph /  20.9km/h 90% 0.02in /  0.51mm 84 W/m2
11:59 59.4 °F /  15.2 °C 56.5 °F /  13.6 °C 29.49in /  998.5hPa South 6.3mph /  10.1km/h 14mph /  22.5km/h 90% 0.03in /  0.76mm 62 W/m2
12:04 59.2 °F /  15.1 °C 56.3 °F /  13.5 °C 29.50in /  998.9hPa South 5.7mph /  9.2km/h 14mph /  22.5km/h 90% 0.02in /  0.51mm 113 W/m2
12:09 59.2 °F /  15.1 °C 56.3 °F /  13.5 °C 29.50in /  998.9hPa SSE 6mph /  9.7km/h 10mph /  16.1km/h 90% 0.02in /  0.51mm 118 W/m2
12:14 58.8 °F /  14.9 °C 55.9 °F /  13.3 °C 29.50in /  998.9hPa South 5.8mph /  9.3km/h 16mph /  25.7km/h 90% 0.02in /  0.51mm 60 W/m2
12:19 58.6 °F /  14.8 °C 55.8 °F /  13.2 °C 29.51in /  999.2hPa SSE 7.6mph /  12.2km/h 17mph /  27.4km/h 90% 0.03in /  0.76mm 77 W/m2
12:24 58.4 °F /  14.7 °C 55.5 °F /  13.1 °C 29.50in /  998.9hPa South 5.1mph /  8.2km/h 14mph /  22.5km/h 90% 0.03in /  0.76mm 70 W/m2
12:29 58 °F /  14.4 °C 55.1 °F /  12.8 °C 29.50in /  998.9hPa South 6.4mph /  10.3km/h 14mph /  22.5km/h 89.8% 0.04in /  1.02mm 74 W/m2
12:34 57.8 °F /  14.3 °C 54.9 °F /  12.7 °C 29.50in /  998.9hPa SSE 7.2mph /  11.6km/h 11mph /  17.7km/h 89.8% 0.03in /  0.76mm 146 W/m2
12:39 57.7 °F /  14.3 °C 54.7 °F /  12.6 °C 29.50in /  998.9hPa SSE 4.9mph /  7.9km/h 14mph /  22.5km/h 89.6% 0.03in /  0.76mm 195 W/m2
12:44 57.8 °F /  14.3 °C 54.6 °F /  12.6 °C 29.50in /  998.9hPa SSE 7mph /  11.3km/h 15mph /  24.1km/h 89% 0.03in /  0.76mm 469 W/m2
12:49 58.4 °F /  14.7 °C 55.2 °F /  12.9 °C 29.49in /  998.5hPa South 6.1mph /  9.8km/h 16mph /  25.7km/h 89% 0.03in /  0.76mm 517 W/m2
12:54 58.8 °F /  14.9 °C 55.5 °F /  13.1 °C 29.49in /  998.5hPa South 4.9mph /  7.9km/h 14mph /  22.5km/h 88.8% 0.03in /  0.76mm 267 W/m2
12:59 59 °F /  15 °C 55.4 °F /  13 °C 29.49in /  998.5hPa South 6.6mph /  10.6km/h 13mph /  20.9km/h 88% 0.02in /  0.51mm 327 W/m2
13:04 59.2 °F /  15.1 °C 55.6 °F /  13.1 °C 29.49in /  998.5hPa SSE 8.6mph /  13.8km/h 18mph /  29km/h 87.8% 0.02in /  0.51mm 327 W/m2
13:09 59.4 °F /  15.2 °C 55.6 °F /  13.1 °C 29.49in /  998.5hPa South 5.8mph /  9.3km/h 15mph /  24.1km/h 87.4% 0.02in /  0.51mm 265 W/m2
13:14 59.4 °F /  15.2 °C 55.4 °F /  13 °C 29.49in /  998.5hPa South 7mph /  11.3km/h 19mph /  30.6km/h 87% 0.02in /  0.51mm 257 W/m2
13:19 59.4 °F /  15.2 °C 55.4 °F /  13 °C 29.49in /  998.5hPa SSE 5.6mph /  9km/h 10mph /  16.1km/h 87% 0.01in /  0.25mm 141 W/m2
13:24 59.4 °F /  15.2 °C 55.4 °F /  13 °C 29.49in /  998.5hPa SE 6.8mph /  10.9km/h 12mph /  19.3km/h 87% 0.01in /  0.25mm 127 W/m2
13:29 59.4 °F /  15.2 °C 55.4 °F /  13 °C 29.49in /  998.5hPa SSE 8.8mph /  14.2km/h 14mph /  22.5km/h 87% 0.01in /  0.25mm 109 W/m2
13:34 59.4 °F /  15.2 °C 55.4 °F /  13 °C 29.48in /  998.2hPa SSE 5.7mph /  9.2km/h 12mph /  19.3km/h 87% 0.00in /  0mm 141 W/m2
13:39 59.2 °F /  15.1 °C 55.6 °F /  13.1 °C 29.48in /  998.2hPa SSE 6.8mph /  10.9km/h 13mph /  20.9km/h 87.8% 0.00in /  0mm 98 W/m2
13:44 59.2 °F /  15.1 °C 55.6 °F /  13.1 °C 29.47in /  997.9hPa SSE 7.4mph /  11.9km/h 13mph /  20.9km/h 88% 0.00in /  0mm 107 W/m2
13:49 59.2 °F /  15.1 °C 55.6 °F /  13.1 °C 29.48in /  998.2hPa South 5.6mph /  9km/h 13mph /  20.9km/h 88% 0.00in /  0mm 100 W/m2
13:54 59.2 °F /  15.1 °C 55.6 °F /  13.1 °C 29.48in /  998.2hPa SSE 6.2mph /  10km/h 9mph /  14.5km/h 88% 0.02in /  0.51mm 62 W/m2
13:59 59 °F /  15 °C 55.7 °F /  13.2 °C 29.47in /  997.9hPa SSE 3.3mph /  5.3km/h 9mph /  14.5km/h 88.8% 0.02in /  0.51mm 49 W/m2
14:04 58.8 °F /  14.9 °C 55.6 °F /  13.1 °C 29.47in /  997.9hPa ESE 4.5mph /  7.2km/h 13mph /  20.9km/h 89% 0.02in /  0.51mm 53 W/m2
14:09 58.8 °F /  14.9 °C 55.7 °F /  13.2 °C 29.48in /  998.2hPa South 3.7mph /  6km/h 10mph /  16.1km/h 89.2% 0.02in /  0.51mm 42 W/m2
14:14 58.8 °F /  14.9 °C 55.9 °F /  13.3 °C 29.48in /  998.2hPa South 4.4mph /  7.1km/h 9mph /  14.5km/h 90% 0.02in /  0.51mm 95 W/m2
14:19 58.8 °F /  14.9 °C 55.9 °F /  13.3 °C 29.47in /  997.9hPa South 5.8mph /  9.3km/h 11mph /  17.7km/h 90% 0.02in /  0.51mm 90 W/m2
14:24 59.2 °F /  15.1 °C 56.3 °F /  13.5 °C 29.47in /  997.9hPa South 8.6mph /  13.8km/h 13mph /  20.9km/h 90% 0.03in /  0.76mm 88 W/m2
14:29 59.2 °F /  15.1 °C 56.3 °F /  13.5 °C 29.47in /  997.9hPa SSE 7.2mph /  11.6km/h 15mph /  24.1km/h 90% 0.03in /  0.76mm 98 W/m2
14:34 59.2 °F /  15.1 °C 56.3 °F /  13.5 °C 29.47in /  997.9hPa SSE 4.1mph /  6.6km/h 11mph /  17.7km/h 90% 0.03in /  0.76mm 104 W/m2
14:39 59.2 °F /  15.1 °C 56.3 °F /  13.5 °C 29.47in /  997.9hPa SSE 7.2mph /  11.6km/h 18mph /  29km/h 90% 0.03in /  0.76mm 107 W/m2
14:44 59.2 °F /  15.1 °C 56.3 °F /  13.5 °C 29.47in /  997.9hPa SSE 9.4mph /  15.1km/h 18mph /  29km/h 90% 0.03in /  0.76mm 84 W/m2
14:49 59.1 °F /  15.1 °C 56.2 °F /  13.4 °C 29.47in /  997.9hPa South 6mph /  9.7km/h 18mph /  29km/h 90% 0.04in /  1.02mm 81 W/m2
14:54 58.9 °F /  14.9 °C 56 °F /  13.3 °C 29.47in /  997.9hPa SE 5.6mph /  9km/h 10mph /  16.1km/h 90% 0.04in /  1.02mm 67 W/m2
14:59 58.7 °F /  14.8 °C 55.8 °F /  13.2 °C 29.46in /  997.5hPa SSE 5.8mph /  9.3km/h 13mph /  20.9km/h 90% 0.04in /  1.02mm 33 W/m2
15:04 58.5 °F /  14.7 °C 55.7 °F /  13.2 °C 29.46in /  997.5hPa SE 5.7mph /  9.2km/h 11mph /  17.7km/h 90% 0.06in /  1.52mm 39 W/m2
15:09 58.4 °F /  14.7 °C 55.6 °F /  13.1 °C 29.45in /  997.2hPa SE 4.9mph /  7.9km/h 8mph /  12.9km/h 90.4% 0.07in /  1.78mm 97 W/m2
15:14 58 °F /  14.4 °C 55.3 °F /  12.9 °C 29.45in /  997.2hPa SE 6.2mph /  10km/h 15mph /  24.1km/h 90.8% 0.07in /  1.78mm 109 W/m2
15:19 57.9 °F /  14.4 °C 55.2 °F /  12.9 °C 29.45in /  997.2hPa SE 4.8mph /  7.7km/h 8mph /  12.9km/h 91% 0.09in /  2.29mm 91 W/m2
15:24 57.9 °F /  14.4 °C 55.2 °F /  12.9 °C 29.44in /  996.8hPa SE 4.1mph /  6.6km/h 12mph /  19.3km/h 91% 0.09in /  2.29mm 74 W/m2
15:29 57.9 °F /  14.4 °C 55.4 °F /  13 °C 29.44in /  996.8hPa SSE 3.6mph /  5.8km/h 5mph /  8km/h 91.4% 0.10in /  2.54mm 216 W/m2
15:34 57.9 °F /  14.4 °C 55.6 °F /  13.1 °C 29.45in /  997.2hPa SSE 8.2mph /  13.2km/h 15mph /  24.1km/h 92% 0.10in /  2.54mm 301 W/m2
15:39 58.1 °F /  14.5 °C 55.8 °F /  13.2 °C 29.45in /  997.2hPa SSE 6.2mph /  10km/h 15mph /  24.1km/h 92% 0.11in /  2.79mm 139 W/m2
15:44 58.4 °F /  14.7 °C 56 °F /  13.3 °C 29.45in /  997.2hPa South 6.5mph /  10.5km/h 13mph /  20.9km/h 92% 0.11in /  2.79mm 84 W/m2
15:49 58.5 °F /  14.7 °C 56.1 °F /  13.4 °C 29.45in /  997.2hPa South 5.2mph /  8.4km/h 12mph /  19.3km/h 92% 0.10in /  2.54mm 100 W/m2
15:54 58.6 °F /  14.8 °C 56.3 °F /  13.5 °C 29.45in /  997.2hPa South 6.1mph /  9.8km/h 17mph /  27.4km/h 92% 0.10in /  2.54mm 128 W/m2
15:59 58.9 °F /  14.9 °C 56.6 °F /  13.7 °C 29.44in /  996.8hPa South 7.8mph /  12.6km/h 14mph /  22.5km/h 92% 0.09in /  2.29mm 109 W/m2
16:04 59.3 °F /  15.2 °C 56.9 °F /  13.8 °C 29.44in /  996.8hPa South 5.1mph /  8.2km/h 17mph /  27.4km/h 92% 0.09in /  2.29mm 91 W/m2
16:09 59.5 °F /  15.3 °C 56.8 °F /  13.8 °C 29.44in /  996.8hPa South 7mph /  11.3km/h 18mph /  29km/h 91% 0.07in /  1.78mm 95 W/m2
16:14 59.7 °F /  15.4 °C 57 °F /  13.9 °C 29.44in /  996.8hPa SSW 8.8mph /  14.2km/h 22mph /  35.4km/h 91% 0.06in /  1.52mm 104 W/m2
16:19 59.7 °F /  15.4 °C 57 °F /  13.9 °C 29.44in /  996.8hPa SSW 7.5mph /  12.1km/h 22mph /  35.4km/h 90.8% 0.05in /  1.27mm 98 W/m2
16:24 59.7 °F /  15.4 °C 56.8 °F /  13.8 °C 29.44in /  996.8hPa SSE 5.4mph /  8.7km/h 15mph /  24.1km/h 90% 0.04in /  1.02mm 93 W/m2
16:29 59.7 °F /  15.4 °C 56.8 °F /  13.8 °C 29.44in /  996.8hPa SSE 5.6mph /  9km/h 14mph /  22.5km/h 90% 0.03in /  0.76mm 125 W/m2
16:34 59.8 °F /  15.4 °C 56.9 °F /  13.8 °C 29.44in /  996.8hPa South 7.4mph /  11.9km/h 21mph /  33.8km/h 90% 0.02in /  0.51mm 83 W/m2
16:39 59.9 °F /  15.5 °C 57 °F /  13.9 °C 29.44in /  996.8hPa SSE 5.3mph /  8.5km/h 12mph /  19.3km/h 90% 0.02in /  0.51mm 46 W/m2
16:44 59.7 °F /  15.4 °C 56.8 °F /  13.8 °C 29.44in /  996.8hPa South 7.8mph /  12.6km/h 17mph /  27.4km/h 90% 0.01in /  0.25mm 32 W/m2
16:49 59.5 °F /  15.3 °C 56.6 °F /  13.7 °C 29.44in /  996.8hPa SSE 7.8mph /  12.6km/h 17mph /  27.4km/h 90% 0.02in /  0.51mm 21 W/m2
16:54 59.3 °F /  15.2 °C 56.4 °F /  13.6 °C 29.44in /  996.8hPa SSE 5.4mph /  8.7km/h 13mph /  20.9km/h 90% 0.02in /  0.51mm 30 W/m2
16:59 59.2 °F /  15.1 °C 56.5 °F /  13.6 °C 29.44in /  996.8hPa South 8.8mph /  14.2km/h 18mph /  29km/h 90.8% 0.02in /  0.51mm 30 W/m2
17:04 59.3 °F /  15.2 °C 56.6 °F /  13.7 °C 29.44in /  996.8hPa South 9.2mph /  14.8km/h 24mph /  38.6km/h 91% 0.02in /  0.51mm 32 W/m2
17:09 59.3 °F /  15.2 °C 56.6 °F /  13.7 °C 29.44in /  996.8hPa South 7.4mph /  11.9km/h 19mph /  30.6km/h 91% 0.02in /  0.51mm 33 W/m2
17:14 59.4 °F /  15.2 °C 56.6 °F /  13.7 °C 29.44in /  996.8hPa SSE 7mph /  11.3km/h 17mph /  27.4km/h 90.4% 0.02in /  0.51mm 35 W/m2
17:19 59.4 °F /  15.2 °C 56.5 °F /  13.6 °C 29.44in /  996.8hPa South 11mph /  17.7km/h 19mph /  30.6km/h 90% 0.02in /  0.51mm 33 W/m2
17:24 59.4 °F /  15.2 °C 56.5 °F /  13.6 °C 29.44in /  996.8hPa South 4.6mph /  7.4km/h 15mph /  24.1km/h 90% 0.02in /  0.51mm 26 W/m2
17:29 59.4 °F /  15.2 °C 56.5 °F /  13.6 °C 29.44in /  996.8hPa SSE 7mph /  11.3km/h 17mph /  27.4km/h 90% 0.02in /  0.51mm 21 W/m2
17:34 59.3 °F /  15.2 °C 56.4 °F /  13.6 °C 29.44in /  996.8hPa SSE 6.8mph /  10.9km/h 14mph /  22.5km/h 90% 0.02in /  0.51mm 12 W/m2
17:39 59.2 °F /  15.1 °C 56.3 °F /  13.5 °C 29.44in /  996.8hPa South 7.4mph /  11.9km/h 14mph /  22.5km/h 90% 0.02in /  0.51mm 12 W/m2
17:44 59.2 °F /  15.1 °C 56.3 °F /  13.5 °C 29.44in /  996.8hPa South 8.6mph /  13.8km/h 17mph /  27.4km/h 90% 0.03in /  0.76mm 11 W/m2
17:49 59 °F /  15 °C 56.3 °F /  13.5 °C 29.44in /  996.8hPa SSE 5.7mph /  9.2km/h 13mph /  20.9km/h 91% 0.02in /  0.51mm 5 W/m2
17:54 58.8 °F /  14.9 °C 56.1 °F /  13.4 °C 29.44in /  996.8hPa South 8.4mph /  13.5km/h 18mph /  29km/h 91% 0.02in /  0.51mm 0 W/m2
17:59 58.8 °F /  14.9 °C 56.1 °F /  13.4 °C 29.45in /  997.2hPa South 5.6mph /  9km/h 12mph /  19.3km/h 91% 0.04in /  1.02mm 0 W/m2
18:04 58.6 °F /  14.8 °C 55.9 °F /  13.3 °C 29.44in /  996.8hPa South 5.2mph /  8.4km/h 12mph /  19.3km/h 91% 0.04in /  1.02mm 0 W/m2
18:09 58.8 °F /  14.9 °C 56.1 °F /  13.4 °C 29.44in /  996.8hPa South 7mph /  11.3km/h 18mph /  29km/h 91% 0.04in /  1.02mm 0 W/m2
18:14 59 °F /  15 °C 56.3 °F /  13.5 °C 29.44in /  996.8hPa SSE 6mph /  9.7km/h 18mph /  29km/h 91% 0.04in /  1.02mm 0 W/m2
18:19 59.2 °F /  15.1 °C 56.5 °F /  13.6 °C 29.44in /  996.8hPa South 5.2mph /  8.4km/h 18mph /  29km/h 91% 0.04in /  1.02mm 0 W/m2
18:24 59.2 °F /  15.1 °C 56.5 °F /  13.6 °C 29.44in /  996.8hPa SSE 5.3mph /  8.5km/h 13mph /  20.9km/h 91% 0.04in /  1.02mm 0 W/m2
18:29 59.2 °F /  15.1 °C 56.5 °F /  13.6 °C 29.44in /  996.8hPa South 5.7mph /  9.2km/h 12mph /  19.3km/h 91% 0.04in /  1.02mm 0 W/m2
18:34 59.3 °F /  15.2 °C 56.6 °F /  13.7 °C 29.44in /  996.8hPa South 6mph /  9.7km/h 17mph /  27.4km/h 91% 0.04in /  1.02mm 0 W/m2
18:39 59.2 °F /  15.1 °C 56.5 °F /  13.6 °C 29.44in /  996.8hPa SSE 7.6mph /  12.2km/h 14mph /  22.5km/h 91% 0.04in /  1.02mm 0 W/m2
18:44 59.3 °F /  15.2 °C 56.5 °F /  13.6 °C 29.44in /  996.8hPa SSE 10mph /  16.1km/h 21mph /  33.8km/h 90.8% 0.04in /  1.02mm 0 W/m2
18:49 59.4 °F /  15.2 °C 56.5 °F /  13.6 °C 29.45in /  997.2hPa SSE 6.8mph /  10.9km/h 14mph /  22.5km/h 90% 0.03in /  0.76mm 0 W/m2
18:54 59.3 °F /  15.2 °C 56.4 °F /  13.6 °C 29.45in /  997.2hPa South 12.3mph /  19.8km/h 21mph /  33.8km/h 90% 0.03in /  0.76mm 0 W/m2
18:59 59.2 °F /  15.1 °C 56.3 °F /  13.5 °C 29.45in /  997.2hPa South 11mph /  17.7km/h 18mph /  29km/h 90% 0.03in /  0.76mm 0 W/m2
19:04 58.9 °F /  14.9 °C 56.2 °F /  13.4 °C 29.45in /  997.2hPa South 8mph /  12.9km/h 21mph /  33.8km/h 91% 0.03in /  0.76mm 0 W/m2
19:09 58.8 °F /  14.9 °C 56.1 °F /  13.4 °C 29.45in /  997.2hPa South 8.6mph /  13.8km/h 20mph /  32.2km/h 91% 0.03in /  0.76mm 0 W/m2
19:14 59.1 °F /  15.1 °C 56.4 °F /  13.6 °C 29.46in /  997.5hPa SSW 9mph /  14.5km/h 20mph /  32.2km/h 91% 0.03in /  0.76mm 0 W/m2
19:19 59.2 °F /  15.1 °C 56.5 °F /  13.6 °C 29.45in /  997.2hPa South 6.4mph /  10.3km/h 16mph /  25.7km/h 91% 0.04in /  1.02mm 0 W/m2
19:24 59.2 °F /  15.1 °C 56.5 °F /  13.6 °C 29.46in /  997.5hPa SW 8.2mph /  13.2km/h 17mph /  27.4km/h 91% 0.04in /  1.02mm 0 W/m2
19:29 59.2 °F /  15.1 °C 56.5 °F /  13.6 °C 29.46in /  997.5hPa SSE 8.4mph /  13.5km/h 21mph /  33.8km/h 91% 0.04in /  1.02mm 0 W/m2
19:34 59.2 °F /  15.1 °C 56.5 °F /  13.6 °C 29.46in /  997.5hPa SSW 11.6mph /  18.7km/h 24mph /  38.6km/h 91% 0.04in /  1.02mm 0 W/m2
19:39 59.1 °F /  15.1 °C 56.4 °F /  13.6 °C 29.47in /  997.9hPa South 9.8mph /  15.8km/h 20mph /  32.2km/h 91% 0.04in /  1.02mm 0 W/m2
19:44 59 °F /  15 °C 56.3 °F /  13.5 °C 29.47in /  997.9hPa SSE 9.2mph /  14.8km/h 20mph /  32.2km/h 91% 0.04in /  1.02mm 0 W/m2
19:49 58.8 °F /  14.9 °C 56.1 °F /  13.4 °C 29.47in /  997.9hPa SSW 6.8mph /  10.9km/h 17mph /  27.4km/h 91% 0.04in /  1.02mm 0 W/m2
19:54 58.9 °F /  14.9 °C 56.2 °F /  13.4 °C 29.47in /  997.9hPa South 9.4mph /  15.1km/h 19mph /  30.6km/h 91% 0.04in /  1.02mm 0 W/m2
19:59 59 °F /  15 °C 56.3 °F /  13.5 °C 29.47in /  997.9hPa South 7.8mph /  12.6km/h 19mph /  30.6km/h 91% 0.03in /  0.76mm 0 W/m2
20:04 59.2 °F /  15.1 °C 56.5 °F /  13.6 °C 29.47in /  997.9hPa SSW 8.2mph /  13.2km/h 17mph /  27.4km/h 91% 0.02in /  0.51mm 0 W/m2
20:09 59.2 °F /  15.1 °C 56.5 °F /  13.6 °C 29.48in /  998.2hPa South 9.2mph /  14.8km/h 21mph /  33.8km/h 91% 0.02in /  0.51mm 0 W/m2
20:14 59.1 °F /  15.1 °C 56.4 °F /  13.6 °C 29.48in /  998.2hPa SSW 9.6mph /  15.4km/h 18mph /  29km/h 91% 0.02in /  0.51mm 0 W/m2
20:19 58.8 °F /  14.9 °C 56.1 °F /  13.4 °C 29.48in /  998.2hPa SSW 4.8mph /  7.7km/h 19mph /  30.6km/h 91% 0.02in /  0.51mm 0 W/m2
20:24 58.7 °F /  14.8 °C 56 °F /  13.3 °C 29.48in /  998.2hPa SSW 4.5mph /  7.2km/h 8mph /  12.9km/h 91% 0.02in /  0.51mm 0 W/m2
20:29 58.6 °F /  14.8 °C 55.9 °F /  13.3 °C 29.48in /  998.2hPa SSW 6.4mph /  10.3km/h 12mph /  19.3km/h 91% 0.02in /  0.51mm 0 W/m2
20:34 58.6 °F /  14.8 °C 55.9 °F /  13.3 °C 29.48in /  998.2hPa SSW 4.3mph /  6.9km/h 11mph /  17.7km/h 91% 0.02in /  0.51mm 0 W/m2
20:39 58.5 °F /  14.7 °C 55.8 °F /  13.2 °C 29.48in /  998.2hPa SW 7.8mph /  12.6km/h 15mph /  24.1km/h 91% 0.01in /  0.25mm 0 W/m2
20:44 58.5 °F /  14.7 °C 55.8 °F /  13.2 °C 29.49in /  998.5hPa SW 6.8mph /  10.9km/h 12mph /  19.3km/h 91% 0.01in /  0.25mm 0 W/m2
20:49 58.5 °F /  14.7 °C 55.8 °F /  13.2 °C 29.49in /  998.5hPa SW 5.1mph /  8.2km/h 12mph /  19.3km/h 91% 0.01in /  0.25mm 0 W/m2
20:54 58.3 °F /  14.6 °C 55.6 °F /  13.1 °C 29.49in /  998.5hPa SW 5.3mph /  8.5km/h 10mph /  16.1km/h 91% 0.01in /  0.25mm 0 W/m2
20:59 58.3 °F /  14.6 °C 55.6 °F /  13.1 °C 29.49in /  998.5hPa SSW 3.9mph /  6.3km/h 9mph /  14.5km/h 91% 0.01in /  0.25mm 0 W/m2
21:04 58.3 °F /  14.6 °C 55.6 °F /  13.1 °C 29.49in /  998.5hPa SW 4.4mph /  7.1km/h 9mph /  14.5km/h 91% 0.01in /  0.25mm 0 W/m2
21:09 58.2 °F /  14.6 °C 55.5 °F /  13.1 °C 29.50in /  998.9hPa SW 4.2mph /  6.8km/h 12mph /  19.3km/h 91% 0.01in /  0.25mm 0 W/m2
21:14 58.1 °F /  14.5 °C 55.4 °F /  13 °C 29.50in /  998.9hPa SW 5.3mph /  8.5km/h 9mph /  14.5km/h 91% 0.01in /  0.25mm 0 W/m2
21:19 57.9 °F /  14.4 °C 55.2 °F /  12.9 °C 29.50in /  998.9hPa SW 6.4mph /  10.3km/h 11mph /  17.7km/h 91% 0.00in /  0mm 0 W/m2
21:24 57.8 °F /  14.3 °C 55.2 °F /  12.9 °C 29.50in /  998.9hPa SW 4.3mph /  6.9km/h 12mph /  19.3km/h 91% 0.00in /  0mm 0 W/m2
21:29 57.7 °F /  14.3 °C 55.2 °F /  12.9 °C 29.51in /  999.2hPa SSW 4.3mph /  6.9km/h 12mph /  19.3km/h 91% 0.00in /  0mm 0 W/m2
21:34 57.6 °F /  14.2 °C 55 °F /  12.8 °C 29.51in /  999.2hPa SSW 3.1mph /  5km/h 9mph /  14.5km/h 91% 0.00in /  0mm 0 W/m2
21:39 57.6 °F /  14.2 °C 55 °F /  12.8 °C 29.51in /  999.2hPa SSW 3.4mph /  5.5km/h 7mph /  11.3km/h 91% 0.00in /  0mm 0 W/m2
21:44 57.6 °F /  14.2 °C 55 °F /  12.8 °C 29.52in /  999.5hPa SSW 3.8mph /  6.1km/h 9mph /  14.5km/h 91% 0.00in /  0mm 0 W/m2
21:49 57.6 °F /  14.2 °C 55 °F /  12.8 °C 29.52in /  999.5hPa SSW 2.8mph /  4.5km/h 8mph /  12.9km/h 91% 0.00in /  0mm 0 W/m2
21:54 57.4 °F /  14.1 °C 54.9 °F /  12.7 °C 29.52in /  999.5hPa South 3.9mph /  6.3km/h 7mph /  11.3km/h 91% 0.00in /  0mm 0 W/m2
21:59 57.4 °F /  14.1 °C 54.9 °F /  12.7 °C 29.52in /  999.5hPa SSW 3.7mph /  6km/h 7mph /  11.3km/h 91% 0.00in /  0mm 0 W/m2
22:04 57.4 °F /  14.1 °C 54.9 °F /  12.7 °C 29.52in /  999.5hPa South 2.5mph /  4km/h 8mph /  12.9km/h 91% 0.00in /  0mm 0 W/m2
22:09 57.2 °F /  14 °C 54.7 °F /  12.6 °C 29.52in /  999.5hPa SSW 2.7mph /  4.3km/h 5mph /  8km/h 91% 0.00in /  0mm 0 W/m2
22:14 57.2 °F /  14 °C 54.7 °F /  12.6 °C 29.53in /  999.9hPa South 2.7mph /  4.3km/h 6mph /  9.7km/h 91% 0.00in /  0mm 0 W/m2
22:19 57.2 °F /  14 °C 54.7 °F /  12.6 °C 29.53in /  999.9hPa South 3.5mph /  5.6km/h 8mph /  12.9km/h 91% 0.00in /  0mm 0 W/m2
22:24 57.2 °F /  14 °C 54.7 °F /  12.6 °C 29.53in /  999.9hPa SW 4.1mph /  6.6km/h 10mph /  16.1km/h 91% 0.00in /  0mm 0 W/m2
22:29 57.4 °F /  14.1 °C 54.9 °F /  12.7 °C 29.54in /  1000.2hPa SSW 3.2mph /  5.1km/h 12mph /  19.3km/h 91% 0.00in /  0mm 0 W/m2
22:34 57.4 °F /  14.1 °C 54.9 °F /  12.7 °C 29.54in /  1000.2hPa WSW 1.4mph /  2.3km/h 7mph /  11.3km/h 91% 0.00in /  0mm 0 W/m2
22:39 57.4 °F /  14.1 °C 54.9 °F /  12.7 °C 29.54in /  1000.2hPa SW 1.5mph /  2.4km/h 6mph /  9.7km/h 91% 0.00in /  0mm 0 W/m2
22:44 57.4 °F /  14.1 °C 54.9 °F /  12.7 °C 29.54in /  1000.2hPa SSE 0.5mph /  0.8km/h 6mph /  9.7km/h 91% 0.00in /  0mm 0 W/m2
22:49 57.3 °F /  14.1 °C 54.8 °F /  12.7 °C 29.54in /  1000.2hPa Calm   3mph /  4.8km/h 91% 0.00in /  0mm 0 W/m2
22:54 57.1 °F /  13.9 °C 54.6 °F /  12.6 °C 29.55in /  1000.6hPa South 1.2mph /  1.9km/h 3mph /  4.8km/h 91% 0.00in /  0mm 0 W/m2
22:59 56.9 °F /  13.8 °C 54.4 °F /  12.4 °C 29.55in /  1000.6hPa SSE 1.2mph /  1.9km/h 3mph /  4.8km/h 91% 0.00in /  0mm 0 W/m2
23:04 56.7 °F /  13.7 °C 54.2 °F /  12.3 °C 29.55in /  1000.6hPa SSE 1.2mph /  1.9km/h 5mph /  8km/h 91% 0.00in /  0mm 0 W/m2
23:09 56.6 °F /  13.7 °C 54 °F /  12.2 °C 29.55in /  1000.6hPa East 1.6mph /  2.6km/h 5mph /  8km/h 91% 0.00in /  0mm 0 W/m2
23:14 56.4 °F /  13.6 °C 53.9 °F /  12.2 °C 29.55in /  1000.6hPa East 1.1mph /  1.8km/h 3mph /  4.8km/h 91% 0.00in /  0mm 0 W/m2
23:19 56.2 °F /  13.4 °C 53.8 °F /  12.1 °C 29.56in /  1000.9hPa East 2.2mph /  3.5km/h 3mph /  4.8km/h 91.4% 0.00in /  0mm 0 W/m2
23:24 56.1 °F /  13.4 °C 53.6 °F /  12 °C 29.56in /  1000.9hPa East 0.2mph /  0.3km/h 3mph /  4.8km/h 91.2% 0.00in /  0mm 0 W/m2
23:29 56.1 °F /  13.4 °C 53.8 °F /  12.1 °C 29.56in /  1000.9hPa East 1.7mph /  2.7km/h 5mph /  8km/h 91.8% 0.00in /  0mm 0 W/m2
23:34 55.9 °F /  13.3 °C 53.6 °F /  12 °C 29.56in /  1000.9hPa East 2.2mph /  3.5km/h 3mph /  4.8km/h 92% 0.00in /  0mm 0 W/m2
23:39 55.9 °F /  13.3 °C 53.6 °F /  12 °C 29.57in /  1001.2hPa ESE 2mph /  3.2km/h 7mph /  11.3km/h 92% 0.00in /  0mm 0 W/m2
23:44 56.2 °F /  13.4 °C 53.9 °F /  12.2 °C 29.57in /  1001.2hPa SW 1.6mph /  2.6km/h 3mph /  4.8km/h 92% 0.00in /  0mm 0 W/m2
23:49 56.3 °F /  13.5 °C 54 °F /  12.2 °C 29.57in /  1001.2hPa SW 0.5mph /  0.8km/h 3mph /  4.8km/h 92% 0.00in /  0mm 0 W/m2
23:54 56.5 °F /  13.6 °C 54.1 °F /  12.3 °C 29.57in /  1001.2hPa SW 0.2mph /  0.3km/h 2mph /  3.2km/h 92% 0.00in /  0mm 0 W/m2
23:59 56.5 °F /  13.6 °C 54.1 °F /  12.3 °C 29.57in /  1001.2hPa SW 0.2mph /  0.3km/h 2mph /  3.2km/h 92% 0.00in /  0mm 0 W/m2
Bath Spa Weather
Compliments of Weather Underground - 2 mb